Time;durP1;ratioP1;P1;durP2;ratioP2;P2;SDS_P1;SDS_P2;PMS_P1;PMS_P2;Temp;Humidity;BMP_temperature;BMP_pressure;BME280_temperature;BME280_humidity;BME280_pressure;Samples;Min_cycle;Max_cycle;Signal;HPM_P1;HPM_P2
2022/11/06 00:00:33;;;;;;;21.35;13.30;;;;;;;6.83;77.89;93120.63;2054296;70;20160;-78
2022/11/06 00:03:03;;;;;;;22.50;13.90;;;;;;;6.95;77.38;93120.84;2054467;69;20192;-78
2022/11/06 00:08:14;;;;;;;14.40;10.00;;;;;;;7.07;77.14;93130.22;2054431;70;20256;-80
2022/11/06 00:10:40;;;;;;;15.77;9.88;;;;;;;7.06;77.62;93128.00;2054348;70;20244;-78
2022/11/06 00:13:05;;;;;;;11.30;7.97;;;;;;;7.13;77.24;93125.09;2054444;70;20150;-81
2022/11/06 00:15:32;;;;;;;15.55;9.13;;;;;;;7.11;77.36;93124.94;2051044;70;20189;-77
2022/11/06 00:17:58;;;;;;;11.98;7.60;;;;;;;7.11;77.10;93113.00;2054517;70;20138;-76
2022/11/06 00:20:24;;;;;;;13.55;8.80;;;;;;;7.01;77.31;93106.59;2054203;70;20169;-75
2022/11/06 00:22:53;;;;;;;19.08;11.20;;;;;;;7.18;76.13;93111.44;2050808;70;20268;-76
2022/11/06 00:25:20;;;;;;;21.08;13.98;;;;;;;7.17;76.85;93109.94;2054452;70;20130;-78
2022/11/06 00:27:46;;;;;;;19.13;13.35;;;;;;;7.16;76.53;93108.47;2054657;70;20225;-75
2022/11/06 00:30:12;;;;;;;15.13;10.52;;;;;;;7.16;76.85;93123.22;2055046;70;20637;-80
2022/11/06 00:32:38;;;;;;;19.30;12.68;;;;;;;7.05;77.79;93112.50;2055254;70;20130;-79
2022/11/06 00:35:04;;;;;;;22.35;14.90;;;;;;;6.87;78.86;93120.94;2052362;70;20170;-80
2022/11/06 00:37:30;;;;;;;23.48;15.35;;;;;;;6.81;79.81;93114.84;2052453;70;20567;-81
2022/11/06 00:39:55;;;;;;;20.50;13.75;;;;;;;6.81;79.25;93114.09;2055909;70;20232;-77
2022/11/06 00:42:21;;;;;;;21.25;13.90;;;;;;;6.86;78.70;93115.91;2055366;69;20133;-79
2022/11/06 00:44:46;;;;;;;18.83;13.30;;;;;;;7.04;78.03;93108.25;2054746;70;20146;-78
2022/11/06 00:47:14;;;;;;;21.83;14.18;;;;;;;7.05;77.94;93102.03;2054437;70;20173;-77
2022/11/06 00:49:40;;;;;;;20.42;14.10;;;;;;;7.07;77.96;93104.28;2054351;70;20562;-75
2022/11/06 00:52:05;;;;;;;22.80;14.32;;;;;;;6.61;80.23;93108.34;2054630;69;20148;-75
2022/11/06 00:54:31;;;;;;;21.67;13.95;;;;;;;6.58;80.43;93100.34;2054429;70;20585;-75
2022/11/06 00:56:57;;;;;;;18.08;12.68;;;;;;;6.81;79.28;93102.91;2054549;70;20146;-74
2022/11/06 00:59:23;;;;;;;17.67;12.23;;;;;;;6.97;77.72;93104.22;2054034;69;20224;-75
2022/11/06 01:01:48;;;;;;;14.68;9.98;;;;;;;6.89;77.76;93100.75;2054376;70;20582;-76
2022/11/06 01:04:17;;;;;;;16.65;10.23;;;;;;;6.86;77.76;93096.31;2054191;70;20141;-76
2022/11/06 01:06:46;;;;;;;15.00;10.00;;;;;;;6.69;78.29;93097.09;2054224;70;20177;-74
2022/11/06 01:09:15;;;;;;;15.02;9.15;;;;;;;6.31;80.24;93089.06;2054233;70;20161;-74
2022/11/06 01:11:46;;;;;;;13.98;8.93;;;;;;;6.50;79.25;93094.09;2054239;70;20150;-75
2022/11/06 01:14:14;;;;;;;12.13;8.00;;;;;;;6.57;78.44;93088.44;2054184;70;20244;-74
2022/11/06 01:16:40;;;;;;;11.93;7.68;;;;;;;6.49;77.84;93087.75;2050897;70;20254;-74
2022/11/06 01:19:05;;;;;;;11.77;8.25;;;;;;;6.53;77.04;93082.50;2051037;70;20483;-74
2022/11/06 01:21:35;;;;;;;14.45;10.20;;;;;;;6.46;77.49;93080.53;2054476;70;20570;-76
2022/11/06 01:24:05;;;;;;;15.23;10.25;;;;;;;6.39;77.11;93086.94;2054185;70;20162;-74
2022/11/06 01:26:31;;;;;;;16.33;10.70;;;;;;;6.41;77.33;93092.69;2054341;70;20213;-75
2022/11/06 01:28:59;;;;;;;15.75;10.93;;;;;;;6.40;78.04;93105.19;2048035;70;20259;-75
2022/11/06 01:31:28;;;;;;;15.70;9.70;;;;;;;6.40;77.49;93102.41;2051017;70;20193;-77
2022/11/06 01:33:55;;;;;;;14.80;9.43;;;;;;;6.43;77.54;93092.13;2050972;70;20204;-75
2022/11/06 01:36:24;;;;;;;17.30;8.88;;;;;;;6.39;77.12;93098.13;2051351;70;20138;-75
2022/11/06 01:38:57;;;;;;;16.80;8.38;;;;;;;6.39;77.18;93095.34;2048188;70;20595;-74
2022/11/06 01:41:30;;;;;;;9.55;6.70;;;;;;;6.38;76.75;93093.84;2051364;70;20248;-76
2022/11/06 01:44:23;;;;;;;11.85;7.18;;;;;;;6.34;77.03;93094.25;2051328;70;20186;-75
2022/11/06 01:46:53;;;;;;;11.65;7.28;;;;;;;6.32;77.25;93085.72;2046260;70;20586;-77
2022/11/06 01:49:22;;;;;;;10.18;6.53;;;;;;;6.24;77.47;93078.72;2051115;69;20472;-75
2022/11/06 01:51:52;;;;;;;9.07;6.25;;;;;;;6.19;76.88;93079.69;2051227;70;20154;-77
2022/11/06 01:54:24;;;;;;;9.10;5.78;;;;;;;6.26;76.41;93079.59;2050656;70;20173;-75
2022/11/06 01:56:59;;;;;;;7.45;5.07;;;;;;;6.10;76.70;93078.28;2050989;70;20150;-76
2022/11/06 01:59:28;;;;;;;9.02;5.60;;;;;;;6.11;76.83;93083.28;2051222;70;20209;-75
2022/11/06 02:01:54;;;;;;;8.15;5.75;;;;;;;6.14;76.21;93086.25;2051080;70;20200;-76
2022/11/06 02:04:24;;;;;;;8.77;6.03;;;;;;;6.16;76.19;93092.00;2051608;70;20143;-76
2022/11/06 02:06:50;;;;;;;8.35;5.82;;;;;;;6.07;76.32;93085.00;2053028;70;20142;-75
2022/11/06 02:09:16;;;;;;;8.20;5.80;;;;;;;6.15;76.37;93082.16;2052343;70;20204;-76
2022/11/06 02:12:12;;;;;;;7.65;4.68;;;;;;;6.10;76.42;93079.03;2051588;70;20161;-76
2022/11/06 02:15:12;;;;;;;8.02;5.47;;;;;;;6.09;76.09;93085.94;2051658;70;20147;-76
2022/11/06 02:17:49;;;;;;;7.10;4.82;;;;;;;6.03;75.42;93095.84;2051624;70;20142;-77
2022/11/06 02:20:34;;;;;;;6.93;5.00;;;;;;;5.90;75.59;93096.84;2051396;70;20150;-76
2022/11/06 02:23:33;;;;;;;7.38;5.03;;;;;;;5.78;76.81;93082.59;2051584;70;20257;-77
2022/11/06 02:26:49;;;;;;;9.15;5.30;;;;;;;5.83;75.41;93092.81;2051675;70;20158;-76
2022/11/06 02:29:24;;;;;;;7.93;5.55;;;;;;;5.74;76.42;93076.69;2033904;70;20576;-77
2022/11/06 02:31:54;;;;;;;7.85;5.38;;;;;;;5.83;76.02;93080.91;2047227;70;20228;-76
2022/11/06 02:34:25;;;;;;;5.97;4.68;;;;;;;5.82;75.71;93085.75;2051465;70;20141;-79
2022/11/06 02:37:00;;;;;;;9.55;4.40;;;;;;;5.83;75.80;93090.03;2047881;70;20153;-76
2022/11/06 02:39:28;;;;;;;5.53;4.07;;;;;;;5.83;76.22;93083.69;2051652;70;20139;-79
2022/11/06 02:41:57;;;;;;;6.97;4.40;;;;;;;5.75;76.30;93080.22;2051522;70;20162;-76
2022/11/06 02:44:26;;;;;;;8.48;4.60;;;;;;;5.73;76.40;93074.47;2051364;70;20139;-82
2022/11/06 02:47:08;;;;;;;5.82;4.35;;;;;;;5.88;75.89;93073.59;2051478;70;20149;-75
2022/11/06 02:49:40;;;;;;;7.45;5.05;;;;;;;5.92;75.46;93068.38;2050460;70;20530;-77
2022/11/06 02:52:20;;;;;;;7.95;4.90;;;;;;;5.80;76.56;93068.81;2051491;70;20151;-75
2022/11/06 02:54:53;;;;;;;8.20;5.55;;;;;;;5.91;76.58;93064.06;2051465;70;20209;-76
2022/11/06 02:57:25;;;;;;;8.43;5.68;;;;;;;6.03;76.97;93062.31;2051607;70;20622;-78
2022/11/06 03:00:00;;;;;;;7.85;5.75;;;;;;;6.13;76.61;93054.75;2053251;70;20237;-75
2022/11/06 03:02:32;;;;;;;12.25;6.90;;;;;;;6.14;76.80;93044.31;2054605;70;20158;-76
2022/11/06 03:05:08;;;;;;;12.60;8.10;;;;;;;6.12;77.20;93042.09;2053368;70;20275;-75
2022/11/06 03:08:00;;;;;;;9.50;6.55;;;;;;;6.08;77.92;93036.91;2051619;70;20182;-75
2022/11/06 03:10:31;;;;;;;7.40;5.13;;;;;;;5.93;77.13;93050.28;2051424;70;20587;-78
2022/11/06 03:13:10;;;;;;;5.57;3.67;;;;;;;5.83;76.89;93039.00;2051444;70;20165;-76
2022/11/06 03:16:04;;;;;;;7.82;3.92;;;;;;;5.76;76.18;93043.31;2051347;70;20165;-77
2022/11/06 03:18:41;;;;;;;6.22;3.95;;;;;;;6.06;75.82;93045.13;2051231;70;20479;-76
2022/11/06 03:21:31;;;;;;;6.13;4.18;;;;;;;6.06;75.34;93044.41;2051183;70;20170;-78
2022/11/06 03:24:09;;;;;;;5.13;3.45;;;;;;;5.68;75.25;93039.88;2051123;70;20193;-76
2022/11/06 03:26:43;;;;;;;4.03;2.78;;;;;;;5.68;74.62;93050.28;2051118;70;20149;-75
2022/11/06 03:29:17;;;;;;;3.70;2.70;;;;;;;6.01;74.25;93048.19;2051043;70;20357;-76
2022/11/06 03:31:56;;;;;;;5.43;2.97;;;;;;;5.96;73.60;93054.75;2051223;70;20264;-76
2022/11/06 03:34:38;;;;;;;3.90;2.90;;;;;;;6.01;73.77;93056.56;2051176;70;20150;-79
2022/11/06 03:37:12;;;;;;;5.05;2.90;;;;;;;5.88;73.68;93051.97;2051157;70;20222;-76
2022/11/06 03:39:45;;;;;;;6.40;3.10;;;;;;;5.69;74.24;93058.09;2052627;70;20115;-77
2022/11/06 03:42:15;;;;;;;5.07;2.78;;;;;;;5.09;75.89;93060.00;2054972;70;20147;-77
2022/11/06 03:44:48;;;;;;;4.15;2.67;;;;;;;5.37;76.10;93058.16;2051032;70;20230;-76
2022/11/06 03:47:21;;;;;;;4.25;2.83;;;;;;;5.53;74.77;93065.84;2051454;70;20546;-75
2022/11/06 03:49:53;;;;;;;3.70;2.70;;;;;;;5.63;74.32;93057.56;2051103;70;20564;-76
2022/11/06 03:52:37;;;;;;;6.13;3.33;;;;;;;5.60;74.05;93058.72;2050938;70;20621;-77
2022/11/06 03:55:12;;;;;;;3.75;3.00;;;;;;;5.60;74.83;93058.72;2050630;70;20137;-80
2022/11/06 03:57:43;;;;;;;4.68;3.22;;;;;;;5.52;75.39;93053.19;2047829;70;20611;-76
2022/11/06 04:00:11;;;;;;;4.85;3.15;;;;;;;5.20;76.44;93042.78;2051593;70;20122;-76
2022/11/06 04:02:45;;;;;;;5.60;3.30;;;;;;;5.21;76.36;93047.06;2051169;70;20212;-78
2022/11/06 04:05:16;;;;;;;4.30;3.28;;;;;;;5.20;76.62;93042.78;2051007;70;20604;-75
2022/11/06 04:16:13;;;;;;;4.57;3.42;;;;;;;5.33;75.23;93041.78;2050892;70;20154;-78
2022/11/06 04:18:39;;;;;;;5.05;3.40;;;;;;;5.28;75.20;93042.75;2050941;70;20293;-80
2022/11/06 04:21:51;;;;;;;4.93;3.45;;;;;;;5.30;75.83;93048.50;2051027;70;20146;-79
2022/11/06 04:27:34;;;;;;;4.55;2.75;;;;;;;4.64;77.13;93044.97;2033673;70;20569;-77
2022/11/06 04:30:14;;;;;;;4.22;2.78;;;;;;;4.36;77.94;93053.63;2033749;70;20287;-77
2022/11/06 04:32:49;;;;;;;5.05;2.55;;;;;;;4.68;77.42;93050.16;2033869;70;20164;-81
2022/11/06 04:35:30;;;;;;;4.30;2.40;;;;;;;4.94;75.85;93049.63;2033987;70;20147;-81
2022/11/06 04:38:05;;;;;;;4.53;2.05;;;;;;;4.81;75.60;93047.09;2036520;70;20662;-77
2022/11/06 04:40:44;;;;;;;3.08;2.17;;;;;;;4.56;76.17;93041.44;2033867;70;20188;-79
2022/11/06 04:44:04;;;;;;;3.38;2.53;;;;;;;4.63;76.79;93042.72;2033687;70;20553;-80
2022/11/06 04:46:35;;;;;;;3.33;2.50;;;;;;;4.87;75.31;93028.13;2026791;70;20622;-80
2022/11/06 04:49:04;;;;;;;3.78;2.42;;;;;;;4.83;75.28;93033.34;2026957;70;20506;-78
2022/11/06 04:51:34;;;;;;;3.25;2.50;;;;;;;4.76;75.58;93032.06;2024111;70;20153;-79
2022/11/06 04:54:00;;;;;;;3.50;2.42;;;;;;;4.74;76.49;93023.53;2024080;70;20245;-80
2022/11/06 04:56:29;;;;;;;4.05;2.22;;;;;;;4.42;77.45;93007.50;2027041;70;20144;-80
2022/11/06 04:58:55;;;;;;;2.40;1.60;;;;;;;4.56;75.46;93013.56;2026799;70;20184;-81
2022/11/06 05:01:21;;;;;;;2.33;1.80;;;;;;;4.73;74.78;93021.31;2031710;70;20152;-82
2022/11/06 05:03:48;;;;;;;2.40;1.73;;;;;;;4.58;76.30;93013.72;2034710;70;20215;-80
2022/11/06 05:06:14;;;;;;;2.25;1.60;;;;;;;4.66;75.44;93013.72;2037260;70;20270;-82
2022/11/06 05:08:40;;;;;;;2.20;1.70;;;;;;;4.65;75.27;93012.97;2037206;70;20150;-76
2022/11/06 05:11:05;;;;;;;2.83;1.70;;;;;;;4.62;75.03;93013.34;2037128;70;20231;-76
2022/11/06 05:13:31;;;;;;;4.35;1.67;;;;;;;4.59;75.51;93013.19;2037295;70;20179;-75
2022/11/06 05:15:58;;;;;;;3.85;1.70;;;;;;;4.54;74.66;93010.63;2036593;70;20274;-76
2022/11/06 05:18:26;;;;;;;2.50;1.45;;;;;;;4.43;75.03;93011.75;2037243;70;20178;-76
2022/11/06 05:23:37;;;;;;;2.55;1.30;;;;;;;4.35;76.16;93019.41;2050902;70;20143;-76
2022/11/06 05:26:04;;;;;;;3.30;1.50;;;;;;;4.39;74.96;93014.19;2047468;70;20149;-76
2022/11/06 05:28:30;;;;;;;2.38;1.20;;;;;;;4.36;74.77;93018.13;2050760;70;20531;-76
2022/11/06 05:30:55;;;;;;;1.73;1.10;;;;;;;4.33;75.24;93011.59;2050722;70;20203;-75
2022/11/06 05:33:22;;;;;;;1.80;1.40;;;;;;;4.36;74.94;93006.22;2050737;70;20148;-76
2022/11/06 05:35:48;;;;;;;3.53;1.10;;;;;;;4.23;74.62;93005.16;2047488;70;20154;-76
2022/11/06 05:38:14;;;;;;;2.53;1.48;;;;;;;4.14;74.25;92988.28;2047566;70;20626;-76
2022/11/06 05:40:39;;;;;;;2.42;1.27;;;;;;;4.29;74.13;92994.53;2050632;70;20154;-75
2022/11/06 05:43:06;;;;;;;1.05;0.95;;;;;;;4.21;73.97;93004.22;2047301;70;20158;-75
2022/11/06 05:45:31;;;;;;;1.75;1.13;;;;;;;4.24;74.28;92994.75;2051207;70;20145;-75
2022/11/06 05:47:57;;;;;;;1.02;0.73;;;;;;;4.17;74.35;92996.25;2052011;70;20170;-76
2022/11/06 05:50:23;;;;;;;1.55;0.88;;;;;;;4.17;75.28;93001.84;2051842;70;20285;-75
2022/11/06 05:52:49;;;;;;;3.50;1.10;;;;;;;4.07;74.87;93007.22;2051740;70;20233;-75
2022/11/06 05:55:14;;;;;;;4.50;1.40;;;;;;;4.14;74.14;92996.63;2051889;70;20269;-76
2022/11/06 05:57:40;;;;;;;1.20;1.00;;;;;;;4.13;74.12;92998.69;2051580;70;20150;-77
2022/11/06 06:00:07;;;;;;;1.05;0.95;;;;;;;4.17;74.17;92996.25;2048207;70;20245;-76
2022/11/06 06:02:38;;;;;;;1.70;0.77;;;;;;;4.14;74.54;93002.22;2048540;70;20165;-76
2022/11/06 06:05:05;;;;;;;1.23;1.00;;;;;;;4.22;72.63;93000.16;2051725;70;20174;-76
2022/11/06 06:07:31;;;;;;;2.03;1.00;;;;;;;4.18;73.82;93002.56;2051548;70;20539;-76
2022/11/06 06:09:57;;;;;;;2.63;1.92;;;;;;;4.10;73.29;93007.41;2051559;70;20154;-79
2022/11/06 06:12:25;;;;;;;2.60;1.80;;;;;;;3.98;73.98;93012.63;2051673;70;20137;-75
2022/11/06 06:14:54;;;;;;;1.55;1.45;;;;;;;3.74;74.63;93014.72;2051730;70;20150;-76
2022/11/06 06:17:21;;;;;;;2.22;1.50;;;;;;;3.90;74.54;93017.50;2051615;70;20146;-76
2022/11/06 06:19:47;;;;;;;2.53;1.70;;;;;;;3.97;74.85;93027.88;2051584;70;20146;-75
2022/11/06 06:22:13;;;;;;;1.83;1.40;;;;;;;4.01;73.83;93031.75;2051497;70;20238;-75
2022/11/06 06:24:39;;;;;;;2.80;2.33;;;;;;;3.99;73.84;93037.16;2051583;70;20263;-75
2022/11/06 06:27:06;;;;;;;2.70;2.10;;;;;;;3.87;74.27;93027.72;2051672;70;20586;-76
2022/11/06 06:29:32;;;;;;;2.75;1.90;;;;;;;3.93;74.08;93033.81;2051495;70;20638;-78
2022/11/06 06:31:58;;;;;;;2.95;1.83;;;;;;;3.90;74.02;93031.44;2051526;70;20182;-81
2022/11/06 06:34:24;;;;;;;4.68;1.88;;;;;;;3.82;74.42;93034.97;2051684;70;20159;-78
2022/11/06 06:36:51;;;;;;;4.25;3.40;;;;;;;3.91;74.24;93033.66;2051620;70;20593;-77
2022/11/06 06:39:18;;;;;;;12.45;6.03;;;;;;;3.86;74.38;93037.38;2051800;70;20681;-76
2022/11/06 06:41:46;;;;;;;15.98;10.90;;;;;;;3.97;74.09;93041.81;2045556;70;20174;-75
2022/11/06 06:44:12;;;;;;;8.30;5.20;;;;;;;3.84;74.12;93039.97;2048164;70;20229;-76
2022/11/06 06:46:38;;;;;;;11.18;7.18;;;;;;;3.84;74.18;93042.75;2048286;70;20214;-77
2022/11/06 06:49:04;;;;;;;6.68;4.35;;;;;;;3.73;74.90;93043.88;2051506;70;20170;-76
2022/11/06 06:51:29;;;;;;;9.52;5.28;;;;;;;3.55;75.15;93048.53;2051467;70;20149;-75
2022/11/06 06:53:55;;;;;;;8.35;5.43;;;;;;;3.83;74.62;93050.34;2051518;70;20229;-77
2022/11/06 06:56:20;;;;;;;12.75;7.97;;;;;;;3.86;73.97;93054.09;2051283;70;20452;-75
2022/11/06 06:58:46;;;;;;;17.25;10.40;;;;;;;3.82;74.57;93051.66;2050850;70;20134;-75
2022/11/06 07:01:12;;;;;;;30.48;18.83;;;;;;;3.83;74.43;93044.06;2051824;70;20150;-75
2022/11/06 07:03:38;;;;;;;21.67;10.38;;;;;;;3.81;74.66;93050.19;2051202;70;20142;-78
2022/11/06 07:06:04;;;;;;;20.95;11.60;;;;;;;3.95;74.19;93045.16;2051016;70;20166;-79
2022/11/06 07:08:31;;;;;;;21.73;10.77;;;;;;;3.74;75.44;93048.13;2051501;70;20147;-76
2022/11/06 07:11:06;;;;;;;14.05;8.55;;;;;;;3.91;74.60;93036.44;2050918;70;20185;-77
2022/11/06 07:13:32;;;;;;;10.20;6.18;;;;;;;4.03;74.50;93037.53;2050943;70;20146;-77
2022/11/06 07:15:57;;;;;;;10.80;5.95;;;;;;;4.04;74.46;93036.22;2050763;70;20653;-75
2022/11/06 07:18:23;;;;;;;9.57;5.18;;;;;;;4.02;74.56;93040.88;2050920;70;20161;-75
2022/11/06 07:20:50;;;;;;;6.75;4.72;;;;;;;4.11;74.50;93033.97;2050888;70;20249;-76
2022/11/06 07:23:15;;;;;;;8.90;3.60;;;;;;;3.88;75.36;93036.81;2051078;70;20232;-75
2022/11/06 07:25:42;;;;;;;4.15;2.75;;;;;;;4.02;75.30;93038.06;2050961;70;20214;-75
2022/11/06 07:28:08;;;;;;;3.03;1.98;;;;;;;4.14;74.78;93044.75;2047688;70;20150;-74
2022/11/06 07:30:35;;;;;;;0.85;0.80;;;;;;;4.28;74.59;93048.06;2050785;70;20174;-76
2022/11/06 07:33:04;;;;;;;1.92;0.90;;;;;;;4.33;74.44;93039.47;2050998;70;20193;-76
2022/11/06 07:35:32;;;;;;;1.63;1.00;;;;;;;4.32;73.43;93040.78;2051675;70;20153;-77
2022/11/06 07:38:01;;;;;;;1.92;1.40;;;;;;;4.22;72.07;93039.91;2051007;70;20173;-76
2022/11/06 07:40:28;;;;;;;2.05;1.52;;;;;;;4.51;71.96;93040.34;2051137;70;20162;-79
2022/11/06 07:42:54;;;;;;;2.13;1.20;;;;;;;4.54;72.81;93039.25;2047696;70;20158;-79
2022/11/06 07:45:21;;;;;;;1.40;1.00;;;;;;;4.62;73.17;93041.25;2050976;70;20606;-76
2022/11/06 07:47:46;;;;;;;2.10;1.60;;;;;;;4.55;72.20;93040.72;2047593;70;20186;-74
2022/11/06 07:50:12;;;;;;;3.85;2.22;;;;;;;4.51;70.93;93037.56;2050923;70;20153;-78
2022/11/06 07:52:37;;;;;;;3.13;2.25;;;;;;;4.62;70.88;93033.59;2047672;70;20599;-79
2022/11/06 07:55:03;;;;;;;8.75;3.80;;;;;;;4.54;69.75;93036.44;2050908;70;20474;-75
2022/11/06 07:57:29;;;;;;;6.97;3.60;;;;;;;4.62;70.28;93032.88;2051057;70;20155;-76
2022/11/06 07:59:56;;;;;;;6.13;3.50;;;;;;;4.82;70.96;93029.06;2050793;70;20237;-76
2022/11/06 08:02:21;;;;;;;4.32;2.10;;;;;;;4.88;70.94;93017.69;2050963;70;20166;-75
2022/11/06 08:04:47;;;;;;;5.35;2.30;;;;;;;4.95;71.26;93028.81;2051174;70;20143;-78
2022/11/06 08:07:13;;;;;;;6.85;4.60;;;;;;;4.57;71.69;93020.63;2051150;70;20146;-80
2022/11/06 08:09:38;;;;;;;9.55;5.18;;;;;;;5.17;71.80;93021.59;2051185;70;20150;-76
2022/11/06 08:12:04;;;;;;;8.05;5.60;;;;;;;5.52;73.60;93018.94;2051246;70;20173;-77
2022/11/06 08:14:31;;;;;;;10.23;5.10;;;;;;;5.82;71.79;93004.72;2048078;70;20237;-80
2022/11/06 08:16:57;;;;;;;3.83;2.40;;;;;;;6.20;71.12;93009.22;2051393;70;20178;-81
2022/11/06 08:19:25;;;;;;;6.57;3.90;;;;;;;6.54;71.04;93000.06;2051363;70;20135;-78
2022/11/06 08:21:50;;;;;;;4.78;3.00;;;;;;;6.27;68.77;92996.47;2051354;70;20154;-82
2022/11/06 08:24:17;;;;;;;3.63;1.95;;;;;;;6.66;67.84;92997.50;2050729;70;20251;-79
2022/11/06 08:26:43;;;;;;;1.40;1.20;;;;;;;6.45;65.84;92989.53;2059484;70;20154;-76
2022/11/06 08:29:10;;;;;;;2.05;1.40;;;;;;;6.94;64.68;92992.66;2049128;70;20562;-79
2022/11/06 08:31:36;;;;;;;2.20;1.52;;;;;;;7.13;63.15;92989.97;2048061;70;20142;-76
2022/11/06 08:34:01;;;;;;;4.32;1.30;;;;;;;7.08;61.23;92996.56;2051517;70;20146;-76
2022/11/06 08:36:27;;;;;;;2.63;1.70;;;;;;;7.54;62.16;92993.09;2051471;70;20150;-77
2022/11/06 08:38:54;;;;;;;3.83;2.22;;;;;;;7.52;60.03;92990.88;2053257;70;20146;-79
2022/11/06 08:41:23;;;;;;;4.85;2.63;;;;;;;8.07;60.33;92972.59;2051837;70;20213;-80
2022/11/06 08:43:51;;;;;;;4.68;3.22;;;;;;;7.66;60.63;92970.88;2051191;70;20241;-83
2022/11/06 08:46:17;;;;;;;4.20;2.90;;;;;;;7.11;63.43;92973.03;2051315;70;20201;-80
2022/11/06 08:48:42;;;;;;;4.93;3.28;;;;;;;8.04;63.25;92976.56;2051873;70;20158;-85
2022/11/06 08:51:08;;;;;;;5.75;2.58;;;;;;;8.17;59.51;92985.88;2042159;70;20141;-77
2022/11/06 08:53:34;;;;;;;4.38;3.40;;;;;;;8.29;60.52;92983.94;2051228;70;20198;-80
2022/11/06 08:56:02;;;;;;;8.88;4.10;;;;;;;7.70;61.55;92988.75;2051011;70;20229;-80
2022/11/06 08:58:28;;;;;;;11.25;6.47;;;;;;;7.79;60.20;92978.84;2050938;70;20178;-81
2022/11/06 09:00:55;;;;;;;9.50;5.93;;;;;;;8.44;61.39;92968.94;2050838;70;20205;-78
2022/11/06 09:03:21;;;;;;;6.80;3.47;;;;;;;9.21;60.65;92959.63;2047577;70;20143;-80
2022/11/06 09:05:47;;;;;;;10.52;5.97;;;;;;;9.49;58.72;92949.63;2047638;70;20143;-80
2022/11/06 09:08:13;;;;;;;3.40;2.40;;;;;;;9.97;58.60;92934.56;2051079;70;20146;-76
2022/11/06 09:10:41;;;;;;;5.97;2.60;;;;;;;9.98;57.00;92931.16;2051004;70;20166;-78
2022/11/06 09:13:06;;;;;;;5.20;2.70;;;;;;;9.96;55.70;92925.41;2051088;70;20154;-81
2022/11/06 09:15:32;;;;;;;4.07;2.55;;;;;;;10.63;56.74;92935.44;2050969;70;20151;-80
2022/11/06 09:17:59;;;;;;;3.78;2.50;;;;;;;10.81;52.81;92927.41;2050941;70;20624;-80
2022/11/06 09:20:26;;;;;;;2.38;1.30;;;;;;;10.46;53.62;92920.91;2050596;70;20126;-75
2022/11/06 09:22:52;;;;;;;1.38;0.80;;;;;;;11.18;52.50;92921.25;2050843;70;20464;-76
2022/11/06 09:25:18;;;;;;;5.45;3.25;;;;;;;10.34;54.32;92927.22;2050724;70;20170;-77
2022/11/06 09:27:46;;;;;;;2.95;2.20;;;;;;;11.31;53.99;92917.09;2050766;70;20684;-78
2022/11/06 09:30:14;;;;;;;3.22;2.30;;;;;;;11.79;52.25;92924.22;2050692;70;20146;-77
2022/11/06 09:32:48;;;;;;;2.75;2.45;;;;;;;11.28;51.43;92915.50;2047422;70;20123;-77
2022/11/06 09:35:14;;;;;;;3.63;2.33;;;;;;;12.00;51.88;92907.16;2050704;70;20176;-78
2022/11/06 09:37:40;;;;;;;2.08;1.70;;;;;;;12.29;48.44;92901.09;2050789;70;20146;-79
2022/11/06 09:40:11;;;;;;;1.70;1.30;;;;;;;12.73;47.80;92885.91;2050882;70;20134;-77
2022/11/06 09:42:52;;;;;;;1.98;1.50;;;;;;;13.29;45.26;92883.31;2050843;70;20146;-77
2022/11/06 09:45:22;;;;;;;3.90;2.55;;;;;;;13.20;46.84;92867.97;2050605;70;20142;-77
2022/11/06 09:48:01;;;;;;;4.53;2.45;;;;;;;12.94;46.21;92876.47;2050762;70;20135;-78
2022/11/06 09:50:31;;;;;;;4.18;2.30;;;;;;;11.88;47.01;92873.31;2050842;70;20187;-77
2022/11/06 09:53:06;;;;;;;1.77;1.33;;;;;;;12.03;46.58;92876.97;2047367;70;20161;-79
2022/11/06 09:55:43;;;;;;;2.10;1.20;;;;;;;12.11;48.00;92871.81;2050667;70;20138;-80
2022/11/06 09:58:39;;;;;;;2.17;1.30;;;;;;;12.92;46.84;92864.31;2051000;70;20180;-78
2022/11/06 10:01:15;;;;;;;2.20;1.40;;;;;;;11.70;48.36;92861.69;2046919;70;20139;-77
2022/11/06 10:04:01;;;;;;;3.50;1.40;;;;;;;12.75;47.36;92853.50;2047028;70;20237;-76
2022/11/06 10:06:28;;;;;;;2.38;1.42;;;;;;;13.23;43.83;92858.97;2045982;70;20203;-77
2022/11/06 10:08:58;;;;;;;1.17;1.08;;;;;;;14.47;42.05;92858.91;2046837;70;20158;-77
2022/11/06 10:11:40;;;;;;;2.47;1.45;;;;;;;14.33;43.45;92861.06;2046960;70;20208;-80
2022/11/06 10:14:55;;;;;;;1.30;1.20;;;;;;;14.66;42.60;92851.34;2047389;70;20151;-78
2022/11/06 10:17:24;;;;;;;2.22;1.20;;;;;;;13.64;41.74;92858.28;2046933;70;20667;-77
2022/11/06 10:19:59;;;;;;;1.67;1.10;;;;;;;14.93;40.92;92850.47;2046890;70;20564;-77
2022/11/06 10:22:34;;;;;;;1.40;1.20;;;;;;;14.30;39.61;92845.34;2046959;70;20182;-77
2022/11/06 10:25:23;;;;;;;1.45;1.00;;;;;;;15.67;39.60;92846.09;2046792;70;20143;-77
2022/11/06 10:28:12;;;;;;;2.00;1.05;;;;;;;14.84;38.22;92843.69;2044271;70;20253;-77
2022/11/06 10:31:06;;;;;;;1.65;1.10;;;;;;;15.37;36.04;92828.41;2046733;70;20233;-76
2022/11/06 10:33:38;;;;;;;1.88;1.20;;;;;;;14.53;38.01;92830.19;2051090;70;20177;-77
2022/11/06 10:36:32;;;;;;;1.17;0.73;;;;;;;14.81;35.06;92827.25;2051230;70;20138;-77
2022/11/06 10:38:59;;;;;;;0.70;0.70;;;;;;;14.67;36.04;92818.81;2048130;70;20231;-77
2022/11/06 10:41:32;;;;;;;0.95;0.90;;;;;;;15.21;35.48;92826.31;2051401;70;20170;-78
2022/11/06 10:44:18;;;;;;;1.05;0.88;;;;;;;17.76;35.71;92813.97;2051002;70;20146;-79
2022/11/06 10:47:02;;;;;;;2.25;1.05;;;;;;;18.29;34.34;92809.41;2051204;70;20241;-77
2022/11/06 10:49:49;;;;;;;2.33;1.25;;;;;;;18.68;32.25;92804.97;2053323;70;20166;-76
2022/11/06 10:52:30;;;;;;;2.22;1.10;;;;;;;19.20;31.15;92811.66;2059069;70;20221;-75
2022/11/06 10:54:58;;;;;;;3.63;2.10;;;;;;;19.01;31.78;92809.63;2054143;70;20311;-77
2022/11/06 10:57:25;;;;;;;3.55;1.33;;;;;;;19.73;29.53;92815.34;2050870;70;20239;-75
2022/11/06 10:59:51;;;;;;;4.50;2.00;;;;;;;18.76;30.96;92806.00;2050940;70;20591;-77
2022/11/06 11:02:34;;;;;;;2.45;1.88;;;;;;;20.59;30.41;92812.72;2051216;70;20244;-74
2022/11/06 11:05:00;;;;;;;3.10;1.45;;;;;;;20.17;29.43;92812.31;2051199;70;20240;-76
2022/11/06 11:07:33;;;;;;;0.60;0.60;;;;;;;21.49;28.60;92809.88;2051699;70;20166;-77
2022/11/06 11:10:18;;;;;;;0.80;0.80;;;;;;;21.66;28.12;92796.59;2051064;70;20142;-77
2022/11/06 11:12:44;;;;;;;1.00;0.60;;;;;;;21.20;28.82;92791.28;2051086;70;20158;-77
2022/11/06 11:15:15;;;;;;;1.77;0.70;;;;;;;19.69;28.54;92790.25;2050892;70;20626;-77
2022/11/06 11:17:42;;;;;;;0.70;0.70;;;;;;;20.83;28.51;92789.69;2051087;70;20146;-77
2022/11/06 11:20:31;;;;;;;0.93;0.85;;;;;;;22.82;25.87;92786.63;2051018;70;20174;-77
2022/11/06 11:23:14;;;;;;;2.22;1.42;;;;;;;24.25;26.43;92780.03;2050936;70;20228;-77
2022/11/06 11:25:43;;;;;;;1.48;1.08;;;;;;;24.41;25.99;92782.38;2050948;70;20142;-78
2022/11/06 11:28:33;;;;;;;2.08;1.70;;;;;;;21.16;27.91;92779.00;2047600;70;20582;-79
2022/11/06 11:31:12;;;;;;;3.33;3.03;;;;;;;21.20;29.60;92776.97;2050749;70;20244;-77
2022/11/06 11:33:40;;;;;;;7.22;5.32;;;;;;;22.00;28.24;92773.66;2044903;70;20179;-76
2022/11/06 11:36:09;;;;;;;5.55;4.30;;;;;;;23.96;27.03;92761.69;2050981;70;20230;-79
2022/11/06 11:38:39;;;;;;;6.07;3.15;;;;;;;22.67;25.02;92756.94;2050928;70;20211;-80
2022/11/06 11:41:12;;;;;;;10.20;4.28;;;;;;;22.46;27.88;92755.16;2050985;70;20214;-80
2022/11/06 11:43:40;;;;;;;26.85;11.65;;;;;;;22.94;26.89;92754.53;2047641;70;20151;-80
2022/11/06 11:46:09;;;;;;;11.65;4.72;;;;;;;25.55;25.19;92751.63;2051150;70;20147;-80
2022/11/06 11:48:43;;;;;;;4.97;2.67;;;;;;;24.86;24.37;92740.34;2051786;70;20214;-79
2022/11/06 11:51:12;;;;;;;4.70;2.90;;;;;;;25.04;25.40;92742.63;2051425;70;20565;-80
2022/11/06 11:53:37;;;;;;;3.53;2.65;;;;;;;23.73;26.80;92732.72;2051220;70;20143;-80
2022/11/06 11:56:06;;;;;;;3.20;2.40;;;;;;;21.82;27.80;92728.19;2051076;70;20142;-80
2022/11/06 11:58:32;;;;;;;2.08;1.50;;;;;;;20.47;30.31;92727.34;2051051;70;20241;-80
2022/11/06 12:01:04;;;;;;;2.67;1.60;;;;;;;19.83;29.88;92726.38;2047554;70;20635;-79
2022/11/06 12:03:42;;;;;;;1.15;1.00;;;;;;;19.11;31.91;92724.34;2050968;70;20146;-79
2022/11/06 12:06:11;;;;;;;3.20;1.92;;;;;;;18.92;32.36;92693.81;2050976;70;20355;-79
2022/11/06 12:08:43;;;;;;;4.13;2.08;;;;;;;17.12;34.62;92707.03;2051057;70;20141;-78
2022/11/06 12:11:15;;;;;;;3.27;2.03;;;;;;;17.01;35.29;92700.25;2047818;70;20146;-79